Time;durP1;ratioP1;P1;durP2;ratioP2;P2;SDS_P1;SDS_P2;PMS_P1;PMS_P2;Temp;Humidity;BMP_temperature;BMP_pressure;BME280_temperature;BME280_humidity;BME280_pressure;Samples;Min_cycle;Max_cycle;Signal;HPM_P1;HPM_P2
2020/12/27 00:01:41;;;;;;;7.77;5.27;;;3.20;99.90;;;;;;4998408;28;20454;-63
2020/12/27 00:04:15;;;;;;;10.77;6.53;;;3.20;99.90;;;;;;4996424;28;20447;-63
2020/12/27 00:06:41;;;;;;;13.20;6.80;;;3.20;99.90;;;;;;4994187;28;20430;-64
2020/12/27 00:09:20;;;;;;;17.27;6.57;;;3.10;99.90;;;;;;4994867;28;20450;-63
2020/12/27 00:11:47;;;;;;;9.73;5.37;;;3.10;99.90;;;;;;4995901;28;20442;-63
2020/12/27 00:14:17;;;;;;;10.90;6.10;;;3.10;99.90;;;;;;4997123;28;20446;-63
2020/12/27 00:16:55;;;;;;;9.00;5.93;;;3.10;99.90;;;;;;4997625;28;20454;-64
2020/12/27 00:19:26;;;;;;;8.30;5.33;;;3.10;99.90;;;;;;4998011;28;20465;-63
2020/12/27 00:21:53;;;;;;;7.93;5.10;;;3.10;99.90;;;;;;4997277;28;20455;-63
2020/12/27 00:24:23;;;;;;;10.47;5.20;;;3.00;99.90;;;;;;4999284;28;20490;-64
2020/12/27 00:26:50;;;;;;;9.23;5.83;;;3.00;99.90;;;;;;5000053;28;20411;-64
2020/12/27 00:29:19;;;;;;;10.90;5.70;;;3.00;99.90;;;;;;5000336;28;20506;-65
2020/12/27 00:31:53;;;;;;;8.10;5.80;;;3.00;99.90;;;;;;5000746;28;20443;-63
2020/12/27 00:34:23;;;;;;;7.23;5.27;;;3.00;99.90;;;;;;4997664;28;20430;-63
2020/12/27 00:36:55;;;;;;;9.83;5.03;;;3.00;99.90;;;;;;4997150;28;20451;-64
2020/12/27 00:39:31;;;;;;;10.17;5.63;;;3.00;99.90;;;;;;4997690;28;20459;-63
2020/12/27 00:42:01;;;;;;;9.30;6.00;;;2.90;99.90;;;;;;4996350;28;20458;-63
2020/12/27 00:44:33;;;;;;;11.60;5.40;;;2.90;99.90;;;;;;4996370;28;20530;-63
2020/12/27 00:47:03;;;;;;;5.63;4.70;;;2.90;99.90;;;;;;4996469;28;20450;-63
2020/12/27 00:49:34;;;;;;;10.33;6.03;;;2.90;99.90;;;;;;4997037;28;20431;-63
2020/12/27 00:52:01;;;;;;;9.37;4.37;;;2.90;99.90;;;;;;4996137;28;20477;-63
2020/12/27 00:54:32;;;;;;;7.57;5.73;;;2.90;99.90;;;;;;4998149;28;20439;-62
2020/12/27 00:57:04;;;;;;;8.87;5.00;;;2.90;99.90;;;;;;4998036;28;20447;-63
2020/12/27 00:59:38;;;;;;;7.90;5.20;;;2.90;99.90;;;;;;4998023;28;20752;-62
2020/12/27 01:02:06;;;;;;;8.10;5.70;;;2.90;99.90;;;;;;4997850;28;20426;-63
2020/12/27 01:04:41;;;;;;;8.00;5.37;;;2.90;99.90;;;;;;4997934;28;20509;-63
2020/12/27 01:07:07;;;;;;;12.23;6.13;;;2.90;99.90;;;;;;4996965;28;20464;-63
2020/12/27 01:09:42;;;;;;;7.30;5.33;;;2.90;99.90;;;;;;4997019;28;20446;-63
2020/12/27 01:12:12;;;;;;;8.17;6.40;;;2.90;99.90;;;;;;4997829;28;20639;-64
2020/12/27 01:14:53;;;;;;;11.00;5.70;;;2.80;99.90;;;;;;4997129;28;20477;-63
2020/12/27 01:17:28;;;;;;;7.70;5.70;;;2.90;99.90;;;;;;4996577;28;20467;-63
2020/12/27 01:20:01;;;;;;;7.80;6.00;;;2.80;99.90;;;;;;4997132;28;20460;-66
2020/12/27 01:22:33;;;;;;;9.03;5.57;;;2.80;99.90;;;;;;4996111;28;20478;-63
2020/12/27 01:25:02;;;;;;;6.23;4.87;;;2.80;99.90;;;;;;4996431;28;20477;-64
2020/12/27 01:27:32;;;;;;;10.83;5.23;;;2.80;99.90;;;;;;4995846;28;20457;-62
2020/12/27 01:30:03;;;;;;;7.97;5.40;;;2.80;99.90;;;;;;4996301;28;20443;-64
2020/12/27 01:32:29;;;;;;;10.60;5.10;;;2.80;99.90;;;;;;4995687;28;20450;-64
2020/12/27 01:34:56;;;;;;;13.07;5.80;;;2.80;99.90;;;;;;4995768;28;20456;-63
2020/12/27 01:37:22;;;;;;;8.13;5.80;;;2.80;99.90;;;;;;4995694;28;20446;-64
2020/12/27 01:39:52;;;;;;;8.80;5.20;;;2.80;99.90;;;;;;4996544;28;20450;-63
2020/12/27 01:42:18;;;;;;;6.73;5.03;;;2.80;99.90;;;;;;4995998;28;20457;-63
2020/12/27 01:44:45;;;;;;;7.07;5.07;;;2.80;99.90;;;;;;4996173;28;20489;-63
2020/12/27 01:47:16;;;;;;;8.60;5.33;;;2.80;99.90;;;;;;4995812;28;20486;-62
2020/12/27 01:49:48;;;;;;;6.80;4.87;;;2.80;99.90;;;;;;4996718;28;20435;-63
2020/12/27 01:52:18;;;;;;;5.60;4.27;;;2.80;99.90;;;;;;4995828;28;20470;-63
2020/12/27 01:54:52;;;;;;;8.80;4.93;;;2.80;99.90;;;;;;4995524;28;20498;-63
2020/12/27 01:57:34;;;;;;;8.10;5.10;;;2.80;99.90;;;;;;4995431;28;20538;-63
2020/12/27 02:00:13;;;;;;;6.93;4.60;;;2.80;99.90;;;;;;4995892;28;20439;-64
2020/12/27 02:02:41;;;;;;;7.47;5.00;;;2.80;99.90;;;;;;4996226;28;20941;-62
2020/12/27 02:05:20;;;;;;;7.00;4.33;;;2.80;99.90;;;;;;4995876;28;20510;-63
2020/12/27 02:07:47;;;;;;;6.27;3.97;;;2.80;99.90;;;;;;4995466;28;20498;-64
2020/12/27 02:10:23;;;;;;;9.17;5.43;;;2.80;99.90;;;;;;4995784;28;20474;-63
2020/12/27 02:12:49;;;;;;;10.77;4.97;;;2.80;99.90;;;;;;4996160;28;20497;-63
2020/12/27 02:15:16;;;;;;;8.07;5.20;;;2.80;99.90;;;;;;4996064;28;20451;-63
2020/12/27 02:17:50;;;;;;;6.50;5.00;;;2.80;99.90;;;;;;4995950;28;20481;-63
2020/12/27 02:20:16;;;;;;;7.60;4.27;;;2.80;99.90;;;;;;4995719;28;20437;-63
2020/12/27 02:22:43;;;;;;;5.70;4.00;;;2.80;99.90;;;;;;4996069;28;20462;-63
2020/12/27 02:25:10;;;;;;;6.50;4.90;;;2.80;99.90;;;;;;4995660;28;20513;-64
2020/12/27 02:27:37;;;;;;;5.50;4.60;;;2.80;99.90;;;;;;4995606;28;20800;-63
2020/12/27 02:30:05;;;;;;;6.83;4.83;;;2.80;99.90;;;;;;4994917;28;21046;-63
2020/12/27 02:32:32;;;;;;;8.60;6.20;;;2.70;99.90;;;;;;4995707;28;20478;-63
2020/12/27 02:34:59;;;;;;;8.27;5.40;;;2.80;99.90;;;;;;4991678;28;20904;-64
2020/12/27 02:37:25;;;;;;;8.30;5.27;;;2.70;99.90;;;;;;4987623;28;20463;-63
2020/12/27 02:39:55;;;;;;;11.47;5.27;;;2.80;99.90;;;;;;4987376;28;20500;-63
2020/12/27 02:42:28;;;;;;;9.37;4.43;;;2.70;99.90;;;;;;4987776;28;20447;-64
2020/12/27 02:45:10;;;;;;;9.93;5.43;;;2.70;99.90;;;;;;4987442;28;20487;-64
2020/12/27 02:47:40;;;;;;;9.10;5.00;;;2.70;99.90;;;;;;4986433;28;20478;-64
2020/12/27 02:50:11;;;;;;;6.70;6.10;;;2.70;99.90;;;;;;4987550;28;20450;-63
2020/12/27 02:52:38;;;;;;;7.30;4.13;;;2.70;99.90;;;;;;4987769;28;20428;-64
2020/12/27 02:55:04;;;;;;;6.00;3.67;;;2.70;99.90;;;;;;4987496;28;20463;-63
2020/12/27 02:57:32;;;;;;;8.33;4.47;;;2.80;99.90;;;;;;4987616;28;20797;-63
2020/12/27 02:59:58;;;;;;;6.63;4.30;;;2.80;99.90;;;;;;4987049;28;20486;-63
2020/12/27 03:02:24;;;;;;;9.20;5.23;;;2.80;99.90;;;;;;4987737;28;20453;-63
2020/12/27 03:04:51;;;;;;;4.73;3.33;;;2.80;99.90;;;;;;4987470;28;20510;-64
2020/12/27 03:07:17;;;;;;;10.90;5.20;;;2.80;99.90;;;;;;4986819;28;20935;-63
2020/12/27 03:09:43;;;;;;;6.63;4.07;;;2.70;99.90;;;;;;4987008;28;20501;-64
2020/12/27 03:12:10;;;;;;;4.90;3.40;;;2.80;99.90;;;;;;4986905;28;20461;-64
2020/12/27 03:14:37;;;;;;;5.27;4.20;;;2.80;99.90;;;;;;4986974;28;20470;-63
2020/12/27 03:17:03;;;;;;;7.87;5.20;;;2.70;99.90;;;;;;4986779;28;20486;-63
2020/12/27 03:19:30;;;;;;;6.90;4.53;;;2.80;99.90;;;;;;4987198;28;20451;-63
2020/12/27 03:21:56;;;;;;;14.63;5.60;;;2.70;99.90;;;;;;4986430;28;20466;-63
2020/12/27 03:24:22;;;;;;;7.43;3.97;;;2.80;99.90;;;;;;4985644;28;20542;-63
2020/12/27 03:26:49;;;;;;;5.30;4.27;;;2.80;99.90;;;;;;4986357;28;20502;-63
2020/12/27 03:29:15;;;;;;;6.67;3.83;;;2.80;99.90;;;;;;4986575;28;20566;-63
2020/12/27 03:31:42;;;;;;;9.87;3.97;;;2.90;99.90;;;;;;4986196;28;20446;-63
2020/12/27 03:34:09;;;;;;;5.97;3.40;;;2.90;99.90;;;;;;4985719;28;20443;-63
2020/12/27 03:36:35;;;;;;;3.77;3.13;;;2.80;99.90;;;;;;4985921;28;20434;-63
2020/12/27 03:39:01;;;;;;;5.90;2.90;;;2.80;99.90;;;;;;4986244;28;20522;-63
2020/12/27 03:41:28;;;;;;;4.80;3.20;;;2.80;99.90;;;;;;4987145;28;20478;-63
2020/12/27 03:43:54;;;;;;;8.43;3.77;;;2.80;99.90;;;;;;4986045;28;20770;-62
2020/12/27 03:46:20;;;;;;;3.63;3.20;;;2.80;99.90;;;;;;4987221;28;20893;-62
2020/12/27 03:48:48;;;;;;;5.40;3.50;;;2.80;99.90;;;;;;4990672;28;20798;-63
2020/12/27 03:51:14;;;;;;;6.80;4.13;;;2.80;99.90;;;;;;4989744;28;20485;-62
2020/12/27 03:53:40;;;;;;;8.13;4.03;;;2.80;99.90;;;;;;4989863;28;20493;-63
2020/12/27 03:56:07;;;;;;;6.17;4.13;;;2.80;99.90;;;;;;4990223;28;20498;-64
2020/12/27 03:58:33;;;;;;;6.57;3.97;;;2.80;99.90;;;;;;4989677;28;20443;-63
2020/12/27 04:01:00;;;;;;;6.17;4.67;;;2.80;99.90;;;;;;4988821;28;20523;-64
2020/12/27 04:03:26;;;;;;;6.47;3.83;;;2.70;99.90;;;;;;4989122;28;20517;-63
2020/12/27 04:05:53;;;;;;;7.13;4.53;;;2.80;99.90;;;;;;5017319;23;20560;-62
2020/12/27 04:08:20;;;;;;;4.30;3.03;;;2.70;99.90;;;;;;5122272;23;20482;-62
2020/12/27 04:10:46;;;;;;;4.53;3.10;;;2.70;99.90;;;;;;5008889;28;20438;-63
2020/12/27 04:13:15;;;;;;;5.50;4.23;;;2.70;99.90;;;;;;5007857;28;20533;-63
2020/12/27 04:15:42;;;;;;;4.80;3.40;;;2.70;99.90;;;;;;5008458;28;20465;-63
2020/12/27 04:18:08;;;;;;;9.00;5.90;;;2.70;99.90;;;;;;5008258;28;20536;-63
2020/12/27 04:20:34;;;;;;;7.33;3.80;;;2.70;99.90;;;;;;5009311;28;20521;-63
2020/12/27 04:23:02;;;;;;;6.90;4.67;;;2.70;99.90;;;;;;5009621;28;20674;-63
2020/12/27 04:25:28;;;;;;;5.40;4.00;;;2.70;99.90;;;;;;5009111;28;20570;-62
2020/12/27 04:27:54;;;;;;;5.93;4.80;;;2.60;99.90;;;;;;5009474;28;20446;-63
2020/12/27 04:30:21;;;;;;;5.70;3.90;;;2.60;99.90;;;;;;5009028;28;20496;-63
2020/12/27 04:32:47;;;;;;;8.53;4.70;;;2.60;99.90;;;;;;5009556;28;20460;-63
2020/12/27 04:35:14;;;;;;;6.40;3.70;;;2.60;99.90;;;;;;5008737;28;20475;-63
2020/12/27 04:37:40;;;;;;;9.90;4.50;;;2.60;99.90;;;;;;5008585;28;20477;-63
2020/12/27 04:40:07;;;;;;;6.23;5.00;;;2.60;99.90;;;;;;5008284;28;20937;-63
2020/12/27 04:42:34;;;;;;;5.83;4.07;;;2.60;99.90;;;;;;5009496;28;20471;-63
2020/12/27 04:45:00;;;;;;;6.77;3.67;;;2.60;99.90;;;;;;5009253;28;20852;-63
2020/12/27 04:47:27;;;;;;;7.63;4.63;;;2.60;99.90;;;;;;5009399;28;20835;-63
2020/12/27 04:49:54;;;;;;;7.63;4.97;;;2.60;99.90;;;;;;5008928;28;20497;-63
2020/12/27 04:52:22;;;;;;;7.90;3.70;;;2.60;99.90;;;;;;5008349;28;20461;-63
2020/12/27 04:54:50;;;;;;;7.53;5.30;;;2.70;99.90;;;;;;5009069;28;20446;-63
2020/12/27 04:57:18;;;;;;;8.33;3.87;;;2.60;99.90;;;;;;5008687;28;20922;-64
2020/12/27 04:59:47;;;;;;;7.60;3.80;;;2.60;99.90;;;;;;5007805;28;20462;-63
2020/12/27 05:02:14;;;;;;;4.73;4.17;;;2.60;99.90;;;;;;5008389;28;20497;-62
2020/12/27 05:04:42;;;;;;;6.40;3.80;;;2.60;99.90;;;;;;4991737;28;20537;-63
2020/12/27 05:07:08;;;;;;;5.30;3.43;;;2.60;99.90;;;;;;5007958;28;20508;-63
2020/12/27 05:09:35;;;;;;;6.03;4.30;;;2.60;99.90;;;;;;5010236;28;20526;-62
2020/12/27 05:12:01;;;;;;;9.60;4.77;;;2.60;99.90;;;;;;5010029;28;20442;-64
2020/12/27 05:14:29;;;;;;;8.00;5.20;;;2.60;99.90;;;;;;5009811;28;20457;-63
2020/12/27 05:16:56;;;;;;;9.40;5.03;;;2.50;99.90;;;;;;5009208;28;20513;-63
2020/12/27 05:19:23;;;;;;;6.03;4.40;;;2.50;99.90;;;;;;5009049;28;20518;-64
2020/12/27 05:21:49;;;;;;;8.43;4.77;;;2.50;99.90;;;;;;5009271;28;20470;-64
2020/12/27 05:24:18;;;;;;;11.37;4.90;;;2.50;99.90;;;;;;5009241;28;20446;-62
2020/12/27 05:26:46;;;;;;;7.80;4.60;;;2.50;99.90;;;;;;5009444;28;20474;-63
2020/12/27 05:29:32;;;;;;;4.70;3.57;;;2.50;99.90;;;;;;5008255;28;20442;-63
2020/12/27 05:32:00;;;;;;;8.33;5.40;;;2.50;99.90;;;;;;5009317;28;20445;-64
2020/12/27 05:34:27;;;;;;;7.10;4.93;;;2.40;99.90;;;;;;5009566;28;20442;-62
2020/12/27 05:36:56;;;;;;;10.77;5.10;;;2.40;99.90;;;;;;5008358;28;20533;-63
2020/12/27 05:39:23;;;;;;;13.97;5.13;;;2.40;99.90;;;;;;5009199;28;20477;-63
2020/12/27 05:41:50;;;;;;;6.10;4.17;;;2.40;99.90;;;;;;5010465;28;20461;-63
2020/12/27 05:44:19;;;;;;;5.93;4.50;;;2.30;99.90;;;;;;5011011;28;20595;-63
2020/12/27 05:46:46;;;;;;;7.03;4.47;;;2.20;99.90;;;;;;5009905;28;20482;-64
2020/12/27 05:49:12;;;;;;;19.17;5.23;;;2.20;99.90;;;;;;5008659;28;20786;-62
2020/12/27 05:51:49;;;;;;;9.40;4.90;;;2.30;99.90;;;;;;5007878;28;20481;-64
2020/12/27 05:54:30;;;;;;;9.27;4.83;;;2.30;99.90;;;;;;5007781;28;20926;-64
2020/12/27 05:56:58;;;;;;;6.83;4.60;;;2.30;99.90;;;;;;5007734;28;20508;-63
2020/12/27 05:59:29;;;;;;;8.47;5.60;;;2.30;99.90;;;;;;5007347;28;20473;-63
2020/12/27 06:01:58;;;;;;;6.90;5.10;;;2.30;99.90;;;;;;5008457;28;20426;-63
2020/12/27 06:05:06;;;;;;;11.83;6.60;;;2.30;99.90;;;;;;5007891;28;20446;-63
2020/12/27 06:07:35;;;;;;;8.80;5.50;;;2.30;99.90;;;;;;5008875;28;20565;-62
2020/12/27 06:10:04;;;;;;;6.77;3.90;;;2.30;99.90;;;;;;5009579;28;20454;-62
2020/12/27 06:12:46;;;;;;;7.77;5.03;;;2.20;99.90;;;;;;5008449;28;20442;-61
2020/12/27 06:15:25;;;;;;;7.90;4.93;;;2.30;99.90;;;;;;5011625;28;20462;-63
2020/12/27 06:18:11;;;;;;;7.23;4.87;;;2.30;99.90;;;;;;5017240;28;20430;-63
2020/12/27 06:20:39;;;;;;;4.67;3.37;;;2.20;99.90;;;;;;5017036;28;20472;-63
2020/12/27 06:23:06;;;;;;;7.67;3.83;;;2.20;99.90;;;;;;5016405;28;20458;-62
2020/12/27 06:25:33;;;;;;;7.87;4.13;;;2.20;99.90;;;;;;5016461;28;20517;-62
2020/12/27 06:28:01;;;;;;;8.40;3.93;;;2.20;99.90;;;;;;5016076;28;20472;-63
2020/12/27 06:30:31;;;;;;;6.13;3.60;;;2.20;99.90;;;;;;5016642;28;20729;-63
2020/12/27 06:33:05;;;;;;;7.13;4.50;;;2.20;99.90;;;;;;5016399;28;20427;-62
2020/12/27 06:35:37;;;;;;;7.27;4.03;;;2.20;99.90;;;;;;5015668;28;20440;-62
2020/12/27 06:38:16;;;;;;;4.57;3.73;;;2.30;99.90;;;;;;5014959;28;20443;-62
2020/12/27 06:40:44;;;;;;;7.90;4.50;;;2.30;99.90;;;;;;5015743;28;20434;-63
2020/12/27 06:43:16;;;;;;;7.00;3.77;;;2.30;99.90;;;;;;5014894;28;20467;-62
2020/12/27 06:45:43;;;;;;;10.93;4.30;;;2.30;99.90;;;;;;5015332;28;20485;-62
2020/12/27 06:48:09;;;;;;;13.53;4.77;;;2.20;99.90;;;;;;5015661;28;20441;-62
2020/12/27 06:50:47;;;;;;;4.60;2.93;;;2.30;99.90;;;;;;5015029;28;20442;-62
2020/12/27 06:53:51;;;;;;;8.13;4.00;;;2.30;99.90;;;;;;5014967;28;20513;-62
2020/12/27 06:56:17;;;;;;;7.17;4.17;;;2.30;99.90;;;;;;5015877;28;20431;-62
2020/12/27 06:59:01;;;;;;;4.60;3.33;;;2.30;99.90;;;;;;5014765;28;20441;-62
2020/12/27 07:01:27;;;;;;;6.77;3.60;;;2.30;99.90;;;;;;5014749;28;20855;-62
2020/12/27 07:04:11;;;;;;;8.07;3.70;;;2.30;99.90;;;;;;5015565;28;20458;-63
2020/12/27 07:06:41;;;;;;;5.90;2.80;;;2.30;99.90;;;;;;5015705;28;20604;-61
2020/12/27 07:09:07;;;;;;;8.60;2.97;;;2.20;99.90;;;;;;5015756;28;20454;-63
2020/12/27 07:11:34;;;;;;;8.60;3.70;;;2.20;99.90;;;;;;5015490;28;20450;-63
2020/12/27 07:14:02;;;;;;;12.90;3.70;;;2.30;99.90;;;;;;5015579;28;20456;-62
2020/12/27 07:16:43;;;;;;;6.63;4.40;;;2.30;99.90;;;;;;5016087;28;20437;-62
2020/12/27 07:19:15;;;;;;;4.07;2.83;;;2.30;99.90;;;;;;5015957;28;20426;-63
2020/12/27 07:21:45;;;;;;;6.77;3.90;;;2.30;99.90;;;;;;5019057;28;20440;-62
2020/12/27 07:24:19;;;;;;;5.50;2.67;;;2.30;99.90;;;;;;5019788;28;20438;-62
2020/12/27 07:26:47;;;;;;;4.10;2.57;;;2.20;99.90;;;;;;5019784;28;20470;-62
2020/12/27 07:29:18;;;;;;;9.10;2.70;;;2.30;99.90;;;;;;5019920;28;20461;-63
2020/12/27 07:31:45;;;;;;;6.10;3.50;;;2.30;99.90;;;;;;5020081;28;20425;-63
2020/12/27 07:34:15;;;;;;;4.83;2.70;;;2.30;99.90;;;;;;5018999;28;20445;-62
2020/12/27 07:36:43;;;;;;;4.90;3.03;;;2.30;99.90;;;;;;5019280;28;20446;-62
2020/12/27 07:39:12;;;;;;;6.93;3.33;;;2.30;99.90;;;;;;5018557;28;20476;-63
2020/12/27 07:41:42;;;;;;;6.20;2.80;;;2.40;99.90;;;;;;5019195;28;20442;-63
2020/12/27 07:44:11;;;;;;;3.93;2.47;;;2.30;99.90;;;;;;5018349;28;20449;-62
2020/12/27 07:46:38;;;;;;;4.97;3.00;;;2.40;99.90;;;;;;5018475;28;20477;-63
2020/12/27 07:49:07;;;;;;;5.93;2.40;;;2.40;99.90;;;;;;5019949;28;20473;-64
2020/12/27 07:51:34;;;;;;;4.70;2.97;;;2.30;99.90;;;;;;5018752;28;20458;-64
2020/12/27 07:54:02;;;;;;;4.00;2.87;;;2.40;99.90;;;;;;5019311;28;20488;-64
2020/12/27 07:56:29;;;;;;;5.03;2.90;;;2.30;99.90;;;;;;5019394;28;20433;-62
2020/12/27 07:58:59;;;;;;;9.67;3.77;;;2.30;99.90;;;;;;5020015;28;20474;-63
2020/12/27 08:01:27;;;;;;;5.20;2.90;;;2.30;99.90;;;;;;5020102;28;20461;-63
2020/12/27 08:03:55;;;;;;;6.40;3.47;;;2.30;99.90;;;;;;5019331;28;20446;-62
2020/12/27 08:06:23;;;;;;;4.53;1.93;;;2.30;99.90;;;;;;5019339;28;20490;-62
2020/12/27 08:08:50;;;;;;;5.07;2.80;;;2.30;99.90;;;;;;5005318;28;20446;-63
2020/12/27 09:46:41;;;;;;;3.00;2.43;;;2.70;99.90;;;;;;5895385;22;20482;-62
2020/12/27 09:49:25;;;;;;;6.60;3.50;;;2.90;99.90;;;;;;5002421;28;20493;-62
2020/12/27 09:52:03;;;;;;;6.13;2.77;;;2.90;99.90;;;;;;4995084;28;20531;-61
2020/12/27 09:54:31;;;;;;;4.10;2.40;;;2.90;99.90;;;;;;5027733;28;20484;-62
2020/12/27 09:56:58;;;;;;;6.70;2.90;;;2.80;99.90;;;;;;5025544;28;20442;-62
2020/12/27 09:59:24;;;;;;;5.17;3.43;;;2.70;99.90;;;;;;5028032;28;20449;-62
2020/12/27 10:01:51;;;;;;;3.77;2.43;;;2.60;99.90;;;;;;5026120;28;20464;-64
2020/12/27 10:04:18;;;;;;;9.70;3.20;;;2.60;99.90;;;;;;5035184;28;20452;-62
2020/12/27 10:06:44;;;;;;;6.70;3.53;;;2.60;99.90;;;;;;5035061;28;20509;-64
2020/12/27 10:09:10;;;;;;;7.70;3.83;;;2.60;99.90;;;;;;5017299;28;20496;-62
2020/12/27 10:11:39;;;;;;;4.30;2.97;;;2.80;99.90;;;;;;5030104;28;20430;-66
2020/12/27 10:14:11;;;;;;;4.60;2.90;;;2.90;99.90;;;;;;5013896;28;20501;-65
2020/12/27 10:16:37;;;;;;;5.30;2.37;;;2.90;99.90;;;;;;5014396;28;20427;-65
2020/12/27 10:19:07;;;;;;;6.60;4.53;;;2.90;99.90;;;;;;5013950;28;20469;-65
2020/12/27 10:21:33;;;;;;;6.00;2.67;;;2.90;99.90;;;;;;5014637;28;20514;-63
2020/12/27 10:24:00;;;;;;;4.50;2.83;;;2.90;99.90;;;;;;5014095;28;20438;-66
2020/12/27 10:26:26;;;;;;;5.43;3.27;;;2.90;99.90;;;;;;5013457;28;20469;-65
2020/12/27 10:28:53;;;;;;;4.20;3.30;;;2.90;99.90;;;;;;5013741;28;20454;-65
2020/12/27 10:31:19;;;;;;;7.17;3.40;;;2.90;99.90;;;;;;5013692;28;20458;-66
2020/12/27 10:33:45;;;;;;;6.93;3.20;;;2.90;99.90;;;;;;5015761;28;20477;-65
2020/12/27 10:36:13;;;;;;;6.80;4.20;;;2.80;99.90;;;;;;5027778;28;20438;-68
2020/12/27 10:38:42;;;;;;;18.20;4.60;;;2.80;99.90;;;;;;5025178;28;20449;-67
2020/12/27 10:41:08;;;;;;;9.20;4.40;;;2.70;99.90;;;;;;5013236;28;20448;-66
2020/12/27 10:43:34;;;;;;;4.70;3.07;;;2.70;99.90;;;;;;5017088;28;20441;-67
2020/12/27 10:46:03;;;;;;;9.10;3.73;;;2.70;99.90;;;;;;5029551;28;20472;-65
2020/12/27 10:48:30;;;;;;;5.43;3.07;;;2.70;99.90;;;;;;5017663;28;20897;-66
2020/12/27 10:50:56;;;;;;;6.63;3.43;;;2.80;99.90;;;;;;5014645;28;20447;-64
2020/12/27 10:53:23;;;;;;;10.37;3.20;;;2.70;99.90;;;;;;5014747;28;20450;-64
2020/12/27 10:55:50;;;;;;;8.40;3.87;;;2.70;99.90;;;;;;5014848;28;20455;-64
2020/12/27 10:58:17;;;;;;;7.57;3.40;;;2.70;99.90;;;;;;5014342;28;20489;-64
2020/12/27 11:00:44;;;;;;;4.80;2.80;;;2.70;99.90;;;;;;5014074;28;20438;-64
2020/12/27 11:03:11;;;;;;;6.43;3.10;;;2.70;99.90;;;;;;5014833;28;20481;-63
2020/12/27 11:05:38;;;;;;;3.10;2.50;;;2.70;99.90;;;;;;5015196;28;21049;-64
2020/12/27 11:08:05;;;;;;;5.70;2.70;;;2.70;99.90;;;;;;5014834;28;20474;-64
2020/12/27 11:10:32;;;;;;;6.50;3.10;;;2.70;99.90;;;;;;5014612;28;20449;-64
2020/12/27 11:13:01;;;;;;;5.13;2.83;;;2.80;99.90;;;;;;5014471;28;20514;-64
2020/12/27 11:15:27;;;;;;;3.53;2.77;;;2.80;99.90;;;;;;5013471;28;20493;-64
2020/12/27 11:17:54;;;;;;;6.30;3.20;;;2.90;99.90;;;;;;5014266;28;20457;-64
2020/12/27 11:20:20;;;;;;;2.93;2.10;;;2.90;99.90;;;;;;5013048;28;20442;-64
2020/12/27 11:22:47;;;;;;;6.27;3.13;;;2.90;99.90;;;;;;5012651;28;20516;-65
2020/12/27 11:25:13;;;;;;;6.17;3.47;;;2.90;99.90;;;;;;5013010;28;20473;-65
2020/12/27 11:27:40;;;;;;;7.50;3.00;;;3.00;99.90;;;;;;5012932;28;20453;-64
2020/12/27 11:30:07;;;;;;;20.17;3.60;;;3.00;99.90;;;;;;5013987;28;20445;-65
2020/12/27 11:32:33;;;;;;;2.60;1.90;;;2.90;99.90;;;;;;5013595;28;20446;-64
2020/12/27 11:35:00;;;;;;;6.17;2.73;;;3.00;99.90;;;;;;5013025;28;20433;-64
2020/12/27 11:37:26;;;;;;;3.60;2.53;;;3.00;99.90;;;;;;5012920;28;20472;-64
2020/12/27 11:39:53;;;;;;;6.80;3.10;;;2.90;99.90;;;;;;5012346;28;20454;-65
2020/12/27 11:42:19;;;;;;;13.80;3.30;;;3.00;99.90;;;;;;5011169;28;20450;-65
2020/12/27 11:44:47;;;;;;;6.43;3.00;;;3.00;99.90;;;;;;5012477;28;20485;-65
2020/12/27 11:47:13;;;;;;;4.20;2.90;;;3.00;99.90;;;;;;5013388;28;20490;-63
2020/12/27 11:49:39;;;;;;;6.80;3.27;;;2.90;99.90;;;;;;5013519;28;20453;-64
2020/12/27 11:52:06;;;;;;;4.80;2.40;;;2.90;99.90;;;;;;5012975;28;20442;-64
2020/12/27 11:54:32;;;;;;;4.23;2.57;;;2.90;99.90;;;;;;5013851;28;20458;-66
2020/12/27 11:56:59;;;;;;;4.80;2.50;;;2.90;99.90;;;;;;5012896;28;20903;-64
2020/12/27 11:59:27;;;;;;;2.90;2.30;;;3.00;99.90;;;;;;5013434;28;20461;-64
2020/12/27 12:02:04;;;;;;;3.63;2.40;;;3.00;99.90;;;;;;5013797;28;20460;-65
2020/12/27 12:04:31;;;;;;;4.67;1.80;;;3.00;99.90;;;;;;5012850;28;20449;-65
2020/12/27 12:06:57;;;;;;;6.33;3.63;;;3.00;99.90;;;;;;5012010;28;20477;-65
2020/12/27 12:09:23;;;;;;;7.33;2.33;;;3.10;99.90;;;;;;5015223;28;20462;-66
2020/12/27 12:11:50;;;;;;;3.30;2.10;;;3.20;99.90;;;;;;5015047;28;20438;-65
2020/12/27 12:14:17;;;;;;;3.70;2.43;;;3.10;99.90;;;;;;5016799;28;20452;-64
2020/12/27 12:16:59;;;;;;;6.27;2.47;;;3.20;99.90;;;;;;5016548;28;20454;-65
2020/12/27 12:19:34;;;;;;;5.90;2.03;;;3.20;99.90;;;;;;5016507;28;20593;-65
2020/12/27 12:22:14;;;;;;;3.10;2.00;;;3.20;99.90;;;;;;5016316;28;20464;-65
2020/12/27 12:24:46;;;;;;;3.50;2.00;;;3.20;99.90;;;;;;5015702;28;20456;-65
2020/12/27 12:27:32;;;;;;;4.90;3.07;;;3.30;99.90;;;;;;5015189;28;20466;-65
2020/12/27 12:30:02;;;;;;;4.27;2.30;;;3.30;99.90;;;;;;5005955;28;20509;-64
2020/12/27 12:32:33;;;;;;;3.20;2.60;;;3.40;99.90;;;;;;5004039;28;20542;-65
2020/12/27 12:35:12;;;;;;;4.47;2.80;;;3.40;99.90;;;;;;5001804;28;20524;-64
2020/12/27 12:37:38;;;;;;;3.00;1.90;;;3.40;99.90;;;;;;4996789;28;20462;-64
2020/12/27 12:40:05;;;;;;;5.20;2.37;;;3.40;99.90;;;;;;4995652;28;20479;-64
2020/12/27 12:42:35;;;;;;;5.53;2.53;;;3.50;99.90;;;;;;4994898;28;20438;-64
2020/12/27 12:45:02;;;;;;;2.80;1.90;;;3.50;99.90;;;;;;4995724;28;20463;-65
2020/12/27 12:47:32;;;;;;;4.33;2.10;;;3.50;99.90;;;;;;4994273;28;20479;-63
2020/12/27 12:50:08;;;;;;;4.13;2.70;;;3.50;99.90;;;;;;4994608;28;20478;-63
2020/12/27 12:52:38;;;;;;;4.80;2.40;;;3.50;99.90;;;;;;4994879;28;20473;-63
2020/12/27 12:55:07;;;;;;;7.67;2.80;;;3.40;99.90;;;;;;4988317;28;20528;-63
2020/12/27 12:57:33;;;;;;;2.43;1.53;;;3.40;99.90;;;;;;4990941;28;20490;-63
2020/12/27 13:00:00;;;;;;;3.50;2.03;;;3.40;99.90;;;;;;4996183;28;20457;-63
2020/12/27 13:02:26;;;;;;;3.10;1.73;;;3.40;99.90;;;;;;5006828;28;21006;-64
2020/12/27 13:04:53;;;;;;;2.60;1.90;;;3.30;99.90;;;;;;5003344;28;20447;-63
2020/12/27 13:07:22;;;;;;;3.97;2.53;;;3.30;99.90;;;;;;5013349;28;20484;-63
2020/12/27 13:09:50;;;;;;;3.70;2.20;;;3.20;99.90;;;;;;5016093;28;20434;-64
2020/12/27 13:12:16;;;;;;;3.23;2.23;;;3.20;99.90;;;;;;5016455;28;20469;-64
2020/12/27 13:14:45;;;;;;;8.00;2.43;;;3.20;99.90;;;;;;5016645;28;20454;-63
2020/12/27 13:17:16;;;;;;;4.10;3.37;;;3.20;99.90;;;;;;5017550;28;20422;-63
2020/12/27 13:19:45;;;;;;;3.77;2.20;;;3.10;99.90;;;;;;5017022;28;20430;-63
2020/12/27 13:22:13;;;;;;;3.57;1.93;;;3.20;99.90;;;;;;5016196;28;20477;-65
2020/12/27 13:24:42;;;;;;;5.27;1.97;;;3.20;99.90;;;;;;5015801;28;20518;-63
2020/12/27 13:27:10;;;;;;;4.50;2.47;;;3.30;99.90;;;;;;5015494;28;20489;-64
2020/12/27 13:29:39;;;;;;;13.63;3.00;;;3.20;99.90;;;;;;5009640;28;20454;-65
2020/12/27 13:32:05;;;;;;;6.70;2.53;;;3.10;99.90;;;;;;5002878;28;20981;-64
2020/12/27 13:34:33;;;;;;;4.27;1.87;;;3.20;99.90;;;;;;5006327;28;20489;-65
2020/12/27 13:36:59;;;;;;;3.73;1.97;;;3.10;99.90;;;;;;5007686;28;20744;-64
2020/12/27 13:39:26;;;;;;;3.40;1.90;;;3.10;99.90;;;;;;5006941;28;20489;-64
2020/12/27 13:41:52;;;;;;;2.47;1.70;;;3.10;99.90;;;;;;5010112;28;20477;-64
2020/12/27 13:44:20;;;;;;;4.07;2.60;;;3.10;99.90;;;;;;5011458;28;20438;-66
2020/12/27 13:46:49;;;;;;;3.83;2.50;;;3.10;99.90;;;;;;5009611;28;20512;-64
2020/12/27 13:49:16;;;;;;;3.03;1.97;;;3.10;99.90;;;;;;5015538;28;20516;-64
2020/12/27 13:51:45;;;;;;;3.20;1.87;;;3.10;99.90;;;;;;5014823;28;20454;-64
2020/12/27 13:54:11;;;;;;;2.90;1.90;;;3.00;99.90;;;;;;5008120;28;20490;-64
2020/12/27 13:56:37;;;;;;;8.33;3.47;;;3.00;99.90;;;;;;5007802;28;20861;-65
2020/12/27 13:59:04;;;;;;;4.83;3.00;;;3.00;99.90;;;;;;5005961;28;20498;-64
2020/12/27 14:01:31;;;;;;;5.20;2.30;;;3.00;99.90;;;;;;5007795;28;20537;-66
2020/12/27 14:03:57;;;;;;;4.03;2.30;;;3.00;99.90;;;;;;5006502;28;20497;-64
2020/12/27 14:06:27;;;;;;;4.67;2.77;;;3.00;99.90;;;;;;5007750;28;20517;-64
2020/12/27 14:08:54;;;;;;;3.57;2.30;;;3.00;99.90;;;;;;5009191;28;20476;-65
2020/12/27 14:11:20;;;;;;;6.57;2.40;;;2.90;99.90;;;;;;5009082;28;20493;-64
2020/12/27 14:13:47;;;;;;;2.93;1.70;;;2.90;99.90;;;;;;5014428;28;20450;-65
2020/12/27 14:16:13;;;;;;;4.83;2.80;;;2.90;99.90;;;;;;5015309;28;20501;-64
2020/12/27 14:18:41;;;;;;;3.80;2.10;;;2.80;99.90;;;;;;5016244;28;20453;-64
2020/12/27 14:21:09;;;;;;;3.60;2.27;;;2.90;99.90;;;;;;5016431;28;20565;-64
2020/12/27 14:23:38;;;;;;;2.30;1.77;;;2.80;99.90;;;;;;5011280;28;20458;-64
2020/12/27 14:26:08;;;;;;;3.50;2.40;;;2.80;99.90;;;;;;5015703;28;20482;-63
2020/12/27 14:28:34;;;;;;;7.63;3.27;;;2.80;99.90;;;;;;5013713;28;20509;-64
2020/12/27 14:31:02;;;;;;;7.80;3.10;;;2.80;99.90;;;;;;5013945;28;20454;-64
2020/12/27 14:33:29;;;;;;;5.63;4.47;;;2.80;99.90;;;;;;5013984;28;20461;-65
2020/12/27 14:36:00;;;;;;;5.77;2.40;;;2.90;99.90;;;;;;5014413;28;20465;-64
2020/12/27 14:38:26;;;;;;;6.47;2.80;;;2.80;99.90;;;;;;5014341;28;20453;-64
2020/12/27 14:40:53;;;;;;;6.07;3.10;;;2.90;99.90;;;;;;5010770;28;20445;-64